Time,TemperatureF,DewpointF,PressureIn,WindDirection,WindDirectionDegrees,WindSpeedMPH,WindSpeedGustMPH,Humidity,HourlyPrecipIn,Conditions,Clouds,dailyrainin,SoftwareType,DateUTC
2013-02-02 00:00:00,29.0,10.8,30.17,WSW,248,11.0,17.0,46,0.00,,---,0.00,VWS V14.01,2013-02-02 07:00:00,
2013-02-02 00:10:00,29.1,10.9,30.14,North,355,11.0,21.0,46,0.00,,---,0.00,VWS V14.01,2013-02-02 07:10:00,
2013-02-02 00:20:00,29.1,10.9,30.14,WNW,294,16.0,25.0,46,0.00,,---,0.00,VWS V14.01,2013-02-02 07:20:00,
2013-02-02 00:30:00,29.4,10.7,30.13,North,5,20.0,27.0,45,0.00,,---,0.00,VWS V14.01,2013-02-02 07:30:00,
2013-02-02 00:40:00,29.6,10.4,30.13,WNW,287,20.0,30.0,44,0.00,,---,0.00,VWS V14.01,2013-02-02 07:40:00,
2013-02-02 00:50:00,28.0,11.8,30.15,WNW,296,15.0,32.0,50,0.00,,---,0.00,VWS V14.01,2013-02-02 07:50:00,
2013-02-02 01:00:00,29.2,11.0,30.14,NW,314,11.0,37.0,46,0.00,,---,0.00,VWS V14.01,2013-02-02 08:00:00,
2013-02-02 01:10:00,29.3,10.6,30.13,NNW,335,20.0,29.0,45,0.00,,---,0.00,VWS V14.01,2013-02-02 08:10:00,
2013-02-02 01:20:00,29.2,10.5,30.13,NNW,340,12.0,32.0,45,0.00,,---,0.00,VWS V14.01,2013-02-02 08:20:00,
2013-02-02 01:30:00,29.6,11.4,30.12,NW,319,13.0,36.0,46,0.00,,---,0.00,VWS V14.01,2013-02-02 08:30:00,
2013-02-02 01:40:00,29.3,12.1,30.12,NW,321,16.0,32.0,48,0.00,,---,0.00,VWS V14.01,2013-02-02 08:40:00,
2013-02-02 01:50:00,28.4,11.2,30.15,NW,315,20.0,30.0,48,0.00,,---,0.00,VWS V14.01,2013-02-02 08:50:00,
2013-02-02 02:00:00,28.2,11.0,30.15,NW,311,31.0,33.0,48,0.00,,---,0.00,VWS V14.01,2013-02-02 09:00:00,
2013-02-02 02:10:00,28.1,11.4,30.16,NW,315,22.0,33.0,49,0.00,,---,0.00,VWS V14.01,2013-02-02 09:10:00,
2013-02-02 02:20:00,29.0,10.8,30.16,WNW,290,19.0,28.0,46,0.00,,---,0.00,VWS V14.01,2013-02-02 09:20:00,
2013-02-02 02:30:00,30.2,9.4,30.15,NW,306,20.0,31.0,41,0.00,,---,0.00,VWS V14.01,2013-02-02 09:30:00,
2013-02-02 02:40:00,30.8,8.8,30.15,West,271,15.0,31.0,39,0.00,,---,0.00,VWS V14.01,2013-02-02 09:40:00,
2013-02-02 02:50:00,29.6,9.3,30.15,WNW,300,12.0,23.0,42,0.00,,---,0.00,VWS V14.01,2013-02-02 09:50:00,
2013-02-02 03:00:00,29.7,8.9,30.17,NW,315,19.0,21.0,41,0.00,,---,0.00,VWS V14.01,2013-02-02 10:00:00,
2013-02-02 03:10:00,30.0,8.6,30.16,NW,313,14.0,29.0,40,0.00,,---,0.00,VWS V14.01,2013-02-02 10:10:00,
2013-02-02 03:20:00,29.9,6.8,30.17,West,272,17.0,26.0,37,0.00,,---,0.00,VWS V14.01,2013-02-02 10:20:00,
2013-02-02 03:30:00,30.5,8.5,30.16,West,275,1.0,24.0,39,0.00,,---,0.00,VWS V14.01,2013-02-02 10:30:00,
2013-02-02 03:40:00,29.4,6.9,30.18,WNW,285,11.0,16.0,38,0.00,,---,0.00,VWS V14.01,2013-02-02 10:40:00,
2013-02-02 03:50:00,29.2,9.0,30.17,NNW,329,16.0,25.0,42,0.00,,---,0.00,VWS V14.01,2013-02-02 10:50:00,
2013-02-02 04:00:00,29.7,8.9,30.17,NW,321,15.0,32.0,41,0.00,,---,0.00,VWS V14.01,2013-02-02 11:00:00,
2013-02-02 04:10:00,29.8,8.4,30.19,WNW,296,13.0,34.0,40,0.00,,---,0.00,VWS V14.01,2013-02-02 11:10:00,
2013-02-02 04:20:00,29.6,8.3,30.19,NW,319,20.0,30.0,40,0.00,,---,0.00,VWS V14.01,2013-02-02 11:20:00,
2013-02-02 04:30:00,29.4,8.1,30.20,NW,319,12.0,26.0,40,0.00,,---,0.00,VWS V14.01,2013-02-02 11:30:00,
2013-02-02 04:40:00,28.8,7.5,30.20,NW,314,12.0,20.0,40,0.00,,---,0.00,VWS V14.01,2013-02-02 11:40:00,
2013-02-02 04:50:00,28.8,8.6,30.21,NNW,348,10.0,21.0,42,0.00,,---,0.00,VWS V14.01,2013-02-02 11:50:00,
2013-02-02 05:00:00,26.2,8.7,30.24,North,355,17.0,18.0,47,0.00,,---,0.00,VWS V14.01,2013-02-02 12:00:00,
2013-02-02 05:10:00,26.3,8.8,30.26,NW,311,15.0,23.0,47,0.00,,---,0.00,VWS V14.01,2013-02-02 12:10:00,
2013-02-02 05:20:00,26.8,6.8,30.25,NW,322,13.0,16.0,42,0.00,,---,0.00,VWS V14.01,2013-02-02 12:20:00,
2013-02-02 05:30:00,28.3,8.7,30.24,North,355,13.0,18.0,43,0.00,,---,0.00,VWS V14.01,2013-02-02 12:30:00,
2013-02-02 05:40:00,27.8,8.7,30.24,NW,321,11.0,28.0,44,0.00,,---,0.00,VWS V14.01,2013-02-02 12:40:00,
2013-02-02 05:50:00,27.5,9.0,30.24,North,11,16.0,20.0,45,0.00,,---,0.00,VWS V14.01,2013-02-02 12:50:00,
2013-02-02 06:00:00,26.0,8.6,30.23,North,360,10.0,26.0,47,0.00,,---,0.00,VWS V14.01,2013-02-02 13:00:00,
2013-02-02 06:10:00,27.3,6.7,30.24,NNW,327,0.0,25.0,41,0.00,,---,0.00,VWS V14.01,2013-02-02 13:10:00,
2013-02-02 06:20:00,24.7,5.9,30.26,NNW,328,0.0,7.0,44,0.00,,---,0.00,VWS V14.01,2013-02-02 13:20:00,
2013-02-02 06:30:00,24.6,5.8,30.27,NNW,328,0.0,0.0,44,0.00,,---,0.00,VWS V14.01,2013-02-02 13:30:00,
2013-02-02 06:40:00,24.5,5.7,30.27,NW,325,0.0,9.0,44,0.00,,---,0.00,VWS V14.01,2013-02-02 13:40:00,
2013-02-02 06:50:00,22.0,5.3,30.32,NW,325,0.0,0.0,48,0.00,,---,0.00,VWS V14.01,2013-02-02 13:50:00,
2013-02-02 07:00:00,21.1,5.8,30.34,NW,325,0.0,0.0,51,0.00,,---,0.00,VWS V14.01,2013-02-02 14:00:00,
2013-02-02 07:10:00,20.9,5.6,30.35,NW,325,0.0,0.0,51,0.00,,---,0.00,VWS V14.01,2013-02-02 14:10:00,
2013-02-02 07:20:00,20.9,6.5,30.36,NW,325,0.0,0.0,53,0.00,,---,0.00,VWS V14.01,2013-02-02 14:20:00,
2013-02-02 07:30:00,21.8,6.9,30.35,NW,325,0.0,0.0,52,0.00,,---,0.00,VWS V14.01,2013-02-02 14:30:00,
2013-02-02 07:40:00,22.1,7.2,30.36,NW,325,0.0,0.0,52,0.00,,---,0.00,VWS V14.01,2013-02-02 14:40:00,
2013-02-02 07:50:00,22.9,7.1,30.36,NW,325,0.0,0.0,50,0.00,,---,0.00,VWS V14.01,2013-02-02 14:50:00,
2013-02-02 08:00:00,24.5,8.5,30.32,NW,325,0.0,0.0,50,0.00,,---,0.00,VWS V14.01,2013-02-02 15:00:00,
2013-02-02 08:10:00,25.5,8.6,30.32,NW,325,0.0,2.0,48,0.00,,---,0.00,VWS V14.01,2013-02-02 15:10:00,
2013-02-02 08:20:00,25.3,7.9,30.32,NW,325,7.0,9.0,47,0.00,,---,0.00,VWS V14.01,2013-02-02 15:20:00,
2013-02-02 08:30:00,25.3,7.9,30.32,NNW,341,0.0,12.0,47,0.00,,---,0.00,VWS V14.01,2013-02-02 15:30:00,
2013-02-02 08:40:00,26.1,8.6,30.32,NNW,341,0.0,2.0,47,0.00,,---,0.00,VWS V14.01,2013-02-02 15:40:00,
2013-02-02 08:50:00,27.0,9.0,30.30,NNW,341,0.0,3.0,46,0.00,,---,0.00,VWS V14.01,2013-02-02 15:50:00,
2013-02-02 09:00:00,28.7,9.6,30.28,NNW,341,0.0,0.0,44,0.00,,---,0.00,VWS V14.01,2013-02-02 16:00:00,
2013-02-02 09:10:00,29.2,10.0,30.31,NNW,341,0.0,5.0,44,0.00,,---,0.00,VWS V14.01,2013-02-02 16:10:00,
2013-02-02 09:20:00,30.2,9.9,30.29,NNW,341,0.0,3.0,42,0.00,,---,0.00,VWS V14.01,2013-02-02 16:20:00,
2013-02-02 09:30:00,31.1,9.6,30.28,NNW,341,0.0,3.0,40,0.00,,---,0.00,VWS V14.01,2013-02-02 16:30:00,
2013-02-02 09:40:00,32.4,9.6,30.27,NNW,341,0.0,2.0,38,0.00,,---,0.00,VWS V14.01,2013-02-02 16:40:00,
2013-02-02 09:50:00,32.5,9.7,30.27,NNW,340,3.0,6.0,38,0.00,,---,0.00,VWS V14.01,2013-02-02 16:50:00,
2013-02-02 10:00:00,32.3,9.6,30.27,NNW,336,2.0,6.0,38,0.00,,---,0.00,VWS V14.01,2013-02-02 17:00:00,
2013-02-02 10:10:00,33.0,9.6,30.27,NNW,336,1.0,5.0,37,0.00,,---,0.00,VWS V14.01,2013-02-02 17:10:00,
2013-02-02 10:20:00,33.2,9.8,30.27,NNW,332,3.0,6.0,37,0.00,,---,0.00,VWS V14.01,2013-02-02 17:20:00,
2013-02-02 10:30:00,33.6,9.5,30.27,NNW,331,2.0,5.0,36,0.00,,---,0.00,VWS V14.01,2013-02-02 17:30:00,
2013-02-02 10:40:00,34.3,8.9,30.28,NNW,331,1.0,6.0,34,0.00,,---,0.00,VWS V14.01,2013-02-02 17:40:00,
2013-02-02 10:50:00,35.1,9.6,30.25,NNW,331,1.0,4.0,34,0.00,,---,0.00,VWS V14.01,2013-02-02 17:50:00,
2013-02-02 11:00:00,36.3,10.0,30.25,NNW,331,0.0,3.0,33,0.00,,---,0.00,VWS V14.01,2013-02-02 18:00:00,
2013-02-02 11:10:00,37.2,8.6,30.24,NNW,330,0.0,4.0,30,0.00,,---,0.00,VWS V14.01,2013-02-02 18:10:00,
2013-02-02 11:20:00,37.0,9.2,30.23,NW,321,2.0,6.0,31,0.00,,---,0.00,VWS V14.01,2013-02-02 18:20:00,
2013-02-02 11:30:00,37.8,9.2,30.23,NW,310,2.0,6.0,30,0.00,,---,0.00,VWS V14.01,2013-02-02 18:30:00,
2013-02-02 11:40:00,38.5,9.8,30.21,WNW,292,4.0,6.0,30,0.00,,---,0.00,VWS V14.01,2013-02-02 18:40:00,
2013-02-02 11:50:00,38.6,10.6,30.20,WNW,287,2.0,7.0,31,0.00,,---,0.00,VWS V14.01,2013-02-02 18:50:00,
2013-02-02 12:00:00,39.9,9.4,30.20,WNW,287,1.0,5.0,28,0.00,,---,0.00,VWS V14.01,2013-02-02 19:00:00,
2013-02-02 12:10:00,40.5,10.8,30.19,WNW,286,2.0,5.0,29,0.00,,---,0.00,VWS V14.01,2013-02-02 19:10:00,
2013-02-02 12:20:00,41.0,8.8,30.16,WSW,257,0.0,7.0,26,0.00,,---,0.00,VWS V14.01,2013-02-02 19:20:00,
2013-02-02 12:30:00,42.0,9.6,30.16,WSW,257,1.0,4.0,26,0.00,,---,0.00,VWS V14.01,2013-02-02 19:30:00,
2013-02-02 12:40:00,42.4,12.4,30.15,WSW,256,2.0,5.0,29,0.00,,---,0.00,VWS V14.01,2013-02-02 19:40:00,
2013-02-02 12:50:00,42.8,12.0,30.14,WSW,257,2.0,4.0,28,0.00,,---,0.00,VWS V14.01,2013-02-02 19:50:00,
2013-02-02 13:00:00,43.2,10.6,30.14,WSW,256,0.0,3.0,26,0.00,,---,0.00,VWS V14.01,2013-02-02 20:00:00,
2013-02-02 13:10:00,44.0,10.4,30.13,WSW,257,0.0,2.0,25,0.00,,---,0.00,VWS V14.01,2013-02-02 20:10:00,
2013-02-02 13:20:00,44.2,7.8,30.12,WSW,244,0.0,7.0,22,0.00,,---,0.00,VWS V14.01,2013-02-02 20:20:00,
2013-02-02 13:30:00,45.3,6.6,30.13,WSW,244,0.0,5.0,20,0.00,,---,0.00,VWS V14.01,2013-02-02 20:30:00,
2013-02-02 13:40:00,46.3,9.6,30.11,WSW,244,0.0,3.0,22,0.00,,---,0.00,VWS V14.01,2013-02-02 20:40:00,
2013-02-02 13:50:00,45.7,9.1,30.11,WSW,244,2.0,6.0,22,0.00,,---,0.00,VWS V14.01,2013-02-02 20:50:00,
2013-02-02 14:00:00,45.7,9.1,30.10,WSW,244,1.0,3.0,22,0.00,,---,0.00,VWS V14.01,2013-02-02 21:00:00,
2013-02-02 14:10:00,46.3,10.6,30.08,WSW,244,0.0,2.0,23,0.00,,---,0.00,VWS V14.01,2013-02-02 21:10:00,
2013-02-02 14:20:00,46.9,10.1,30.08,WSW,244,1.0,4.0,22,0.00,,---,0.00,VWS V14.01,2013-02-02 21:20:00,
2013-02-02 14:30:00,46.2,7.4,30.08,WSW,244,1.0,4.0,20,0.00,,---,0.00,VWS V14.01,2013-02-02 21:30:00,
2013-02-02 14:40:00,46.3,8.5,30.08,WSW,244,0.0,4.0,21,0.00,,---,0.00,VWS V14.01,2013-02-02 21:40:00,
2013-02-02 14:50:00,47.2,9.3,30.09,WSW,244,0.0,1.0,21,0.00,,---,0.00,VWS V14.01,2013-02-02 21:50:00,
2013-02-02 15:00:00,45.9,8.2,30.09,NW,308,3.0,10.0,21,0.00,,---,0.00,VWS V14.01,2013-02-02 22:00:00,
2013-02-02 15:10:00,45.7,10.0,30.08,NW,310,0.0,5.0,23,0.00,,---,0.00,VWS V14.01,2013-02-02 22:10:00,
2013-02-02 15:20:00,45.2,9.6,30.11,NW,305,3.0,13.0,23,0.00,,---,0.00,VWS V14.01,2013-02-02 22:20:00,
2013-02-02 15:30:00,45.1,10.5,30.10,NW,304,0.0,3.0,24,0.00,,---,0.00,VWS V14.01,2013-02-02 22:30:00,
2013-02-02 15:40:00,44.5,10.0,30.11,WNW,302,3.0,4.0,24,0.00,,---,0.00,VWS V14.01,2013-02-02 22:40:00,
2013-02-02 15:50:00,43.8,11.2,30.10,WNW,302,4.0,5.0,26,0.00,,---,0.00,VWS V14.01,2013-02-02 22:50:00,
2013-02-02 16:00:00,43.6,10.1,30.10,WNW,302,1.0,4.0,25,0.00,,---,0.00,VWS V14.01,2013-02-02 23:00:00,
2013-02-02 16:10:00,43.2,7.9,30.15,NW,312,2.0,7.0,23,0.00,,---,0.00,VWS V14.01,2013-02-02 23:10:00,
2013-02-02 16:20:00,42.4,8.2,30.16,North,360,8.0,15.0,24,0.00,,---,0.00,VWS V14.01,2013-02-02 23:20:00,
2013-02-02 16:30:00,42.0,10.5,30.16,NNE,13,0.0,10.0,27,0.00,,---,0.00,VWS V14.01,2013-02-02 23:30:00,
2013-02-02 16:40:00,40.5,10.8,30.19,SE,126,1.0,6.0,29,0.00,,---,0.00,VWS V14.01,2013-02-02 23:40:00,
2013-02-02 16:50:00,39.1,11.8,30.21,SE,130,1.0,6.0,32,0.00,,---,0.00,VWS V14.01,2013-02-02 23:50:00,
2013-02-02 17:00:00,38.4,11.8,30.21,SE,129,1.0,3.0,33,0.00,,---,0.00,VWS V14.01,2013-02-03 00:00:00,
2013-02-02 17:10:00,37.5,11.7,30.22,SE,130,0.0,2.0,34,0.00,,---,0.00,VWS V14.01,2013-02-03 00:10:00,
2013-02-02 17:20:00,36.4,13.2,30.24,SE,129,0.0,1.0,38,0.00,,---,0.00,VWS V14.01,2013-02-03 00:20:00,
2013-02-02 17:30:00,35.8,12.7,30.24,SE,130,0.0,0.0,38,0.00,,---,0.00,VWS V14.01,2013-02-03 00:30:00,
2013-02-02 17:40:00,35.1,12.1,30.26,SE,129,0.0,1.0,38,0.00,,---,0.00,VWS V14.01,2013-02-03 00:40:00,
2013-02-02 17:50:00,33.8,13.1,30.26,SE,130,0.0,0.0,42,0.00,,---,0.00,VWS V14.01,2013-02-03 00:50:00,
2013-02-02 18:00:00,32.0,11.5,30.29,SE,138,0.0,2.0,42,0.00,,---,0.00,VWS V14.01,2013-02-03 01:00:00,
2013-02-02 18:10:00,31.0,11.1,30.34,SE,138,0.0,2.0,43,0.00,,---,0.00,VWS V14.01,2013-02-03 01:10:00,
2013-02-02 18:20:00,31.5,11.6,30.35,SE,139,0.0,0.0,43,0.00,,---,0.00,VWS V14.01,2013-02-03 01:20:00,
2013-02-02 18:30:00,31.5,13.1,30.36,SE,139,0.0,1.0,46,0.00,,---,0.00,VWS V14.01,2013-02-03 01:30:00,
2013-02-02 18:40:00,32.2,13.3,30.36,SE,139,0.0,0.0,45,0.00,,---,0.00,VWS V14.01,2013-02-03 01:40:00,
2013-02-02 18:50:00,31.5,10.5,30.36,SE,139,0.0,0.0,41,0.00,,---,0.00,VWS V14.01,2013-02-03 01:50:00,
2013-02-02 19:00:00,31.4,12.5,30.36,SE,139,0.0,1.0,45,0.00,,---,0.00,VWS V14.01,2013-02-03 02:00:00,
2013-02-02 19:10:00,30.1,11.8,30.34,SE,140,0.0,1.0,46,0.00,,---,0.00,VWS V14.01,2013-02-03 02:10:00,
2013-02-02 19:20:00,29.0,11.3,30.34,SE,141,0.0,1.0,47,0.00,,---,0.00,VWS V14.01,2013-02-03 02:20:00,
2013-02-02 19:30:00,29.8,10.6,30.35,SE,141,0.0,1.0,44,0.00,,---,0.00,VWS V14.01,2013-02-03 02:30:00,
2013-02-02 19:40:00,30.8,11.0,30.33,SE,142,0.0,2.0,43,0.00,,---,0.00,VWS V14.01,2013-02-03 02:40:00,
2013-02-02 19:50:00,29.2,12.9,30.35,SE,142,0.0,1.0,50,0.00,,---,0.00,VWS V14.01,2013-02-03 02:50:00,
2013-02-02 20:00:00,27.7,13.2,30.37,SE,142,0.0,0.0,54,0.00,,---,0.00,VWS V14.01,2013-02-03 03:00:00,
2013-02-02 20:10:00,28.8,13.0,30.33,East,80,7.0,8.0,51,0.00,,---,0.00,VWS V14.01,2013-02-03 03:10:00,
2013-02-02 20:20:00,29.9,12.6,30.32,ENE,59,8.0,8.0,48,0.00,,---,0.00,VWS V14.01,2013-02-03 03:20:00,
2013-02-02 20:30:00,29.9,12.1,30.33,NE,50,0.0,10.0,47,0.00,,---,0.00,VWS V14.01,2013-02-03 03:30:00,
2013-02-02 20:40:00,28.0,13.1,30.34,NE,50,0.0,1.0,53,0.00,,---,0.00,VWS V14.01,2013-02-03 03:40:00,
2013-02-02 20:50:00,27.6,12.7,30.34,NE,50,0.0,0.0,53,0.00,,---,0.00,VWS V14.01,2013-02-03 03:50:00,
2013-02-02 21:00:00,26.7,13.5,30.32,NE,49,0.0,0.0,57,0.00,,---,0.00,VWS V14.01,2013-02-03 04:00:00,
2013-02-02 21:10:00,27.9,11.7,30.30,NNE,31,5.0,10.0,50,0.00,,---,0.00,VWS V14.01,2013-02-03 04:10:00,
2013-02-02 21:20:00,28.8,10.6,30.30,North,11,5.0,11.0,46,0.00,,---,0.00,VWS V14.01,2013-02-03 04:20:00,
2013-02-02 21:30:00,27.9,10.8,30.30,North,355,8.0,12.0,48,0.00,,---,0.00,VWS V14.01,2013-02-03 04:30:00,
2013-02-02 21:40:00,27.7,10.1,30.30,North,355,6.0,11.0,47,0.00,,---,0.00,VWS V14.01,2013-02-03 04:40:00,
2013-02-02 21:50:00,28.1,9.5,30.28,NNW,342,4.0,11.0,45,0.00,,---,0.00,VWS V14.01,2013-02-03 04:50:00,
2013-02-02 22:00:00,27.5,9.4,30.29,NNW,342,6.0,7.0,46,0.00,,---,0.00,VWS V14.01,2013-02-03 05:00:00,
2013-02-02 22:10:00,27.0,9.5,30.27,NNW,342,0.0,6.0,47,0.00,,---,0.00,VWS V14.01,2013-02-03 05:10:00,
2013-02-02 22:20:00,27.1,9.1,30.26,NNW,342,0.0,6.0,46,0.00,,---,0.00,VWS V14.01,2013-02-03 05:20:00,
2013-02-02 22:21:00,27.1,9.1,30.26,NNW,342,0.0,6.0,46,0.00,,---,0.00,VWS V14.01,2013-02-03 05:21:00,
2013-02-02 22:30:00,26.2,8.7,30.26,NNW,342,0.0,0.0,47,0.00,,---,0.00,VWS V14.01,2013-02-03 05:30:00,
2013-02-02 22:40:00,25.3,7.4,30.28,NNW,342,0.0,1.0,46,0.00,,---,0.00,VWS V14.01,2013-02-03 05:40:00,
2013-02-02 22:50:00,26.0,8.1,30.26,NNW,342,0.0,0.0,46,0.00,,---,0.00,VWS V14.01,2013-02-03 05:50:00,
2013-02-02 23:00:00,25.6,8.2,30.26,NNW,342,0.0,1.0,47,0.00,,---,0.00,VWS V14.01,2013-02-03 06:00:00,
2013-02-02 23:10:00,25.4,8.5,30.22,NNW,342,5.0,8.0,48,0.00,,---,0.00,VWS V14.01,2013-02-03 06:10:00,
2013-02-02 23:20:00,24.2,8.7,30.24,NNW,342,7.0,9.0,51,0.00,,---,0.00,VWS V14.01,2013-02-03 06:20:00,
2013-02-02 23:30:00,23.4,8.4,30.24,NNW,342,4.0,9.0,52,0.00,,---,0.00,VWS V14.01,2013-02-03 06:30:00,
2013-02-02 23:40:00,22.7,7.7,30.26,NNW,342,0.0,4.0,52,0.00,,---,0.00,VWS V14.01,2013-02-03 06:40:00,
2013-02-02 23:50:00,22.4,7.9,30.25,NNW,342,0.0,0.0,53,0.00,,---,0.00,VWS V14.01,2013-02-03 06:50:00,